Thunderstorms From: 22-05-2018 15:00 Until: 23-05-2018 15:00 warning for: Thunderstorms Level: Yellow info button

Although rather usual in this region, locally or potentially dangerous phenomena are expected. (such as local winds, summer thunderstorms, rising streams or high waves) Be aware and pay attention to the latest weather updates, especially if you carry out activities exposed to weather or close to a stream or shoreline. 


Meteo18 Weather Cam more information Meteo18 Weather Cam


warning for Thunderstorms more information blitzortung!


Rain radar more information rain snow radar


Visit our other weather sites:

Template documentation
and downloads

And another site



Weather Underground History page Text

Daily Summary for September 29, 2017 Units:  Both    English   Metric
« Previous Day
Next Day »
Daily Weekly Monthly Yearly Custom
  High: Low: Average:
Temperature: TemperatureC °F /  -17.8 °C 12.9 °F /  -10.6 °C 18.5 °F /  -7.5 °C
Dew Point: DewpointC °F /  -17.8 °C 12.1 °F /  -11.1 °C 14.4 °F /  -9.8 °C
Humidity: Humidity % 49 % 79 %
Wind Speed: WindSpeedKMH mph /  0 km/h - 1.5 mph /  2.4 km/h
Wind Gust: WindSpeedGustKMH mph /  0 km/h - -
Wind:- - SW
Pressure: PressurehPa in /  0 hPa 1019.2 in /  34510.1 hPa -
Precipitation: 0.0 in /  0 mm    
Historical Graphs
 
 
Tabular Data for September 29, 2017
Time Temperature Dew Point Pressure Wind Wind Speed Wind Gust Humidity Rainfall Rate (Hourly)
TemperatureC °F /  -17.8 °C DewpointC °F /  -17.8 °C PressurehPa in /  0 hPa Calm     Humidity % HourlyPrecipMM in /  0 mm
00:02 15.3 °F /  -9.3 °C 14.2 °F /  -9.9 °C 1023.6 in /  34659.1 hPa Calm   3.2 mph /  5.1 km/h 93 % 0.0 in /  0 mm
00:12 15.3 °F /  -9.3 °C 14.3 °F /  -9.8 °C 1023.6 in /  34659.1 hPa Calm   1.6 mph /  2.6 km/h 94 % 0.0 in /  0 mm
00:17 15.3 °F /  -9.3 °C 14.3 °F /  -9.8 °C 1023.6 in /  34659.1 hPa Calm     94 % 0.0 in /  0 mm
00:22 15.3 °F /  -9.3 °C 14.2 °F /  -9.9 °C 1023.6 in /  34659.1 hPa Calm     93 % 0.0 in /  0 mm
00:32 15.2 °F /  -9.3 °C 14.1 °F /  -9.9 °C 1023.6 in /  34659.1 hPa Calm     93 % 0.0 in /  0 mm
00:42 15.2 °F /  -9.3 °C 14.1 °F /  -9.9 °C 1023.6 in /  34659.1 hPa Calm     93 % 0.0 in /  0 mm
00:47 15.1 °F /  -9.4 °C 14.0 °F /  -10 °C 1023.6 in /  34659.1 hPa Calm     93 % 0.0 in /  0 mm
00:57 14.9 °F /  -9.5 °C 13.8 °F /  -10.1 °C 1023.6 in /  34659.1 hPa Calm     93 % 0.0 in /  0 mm
01:02 14.8 °F /  -9.6 °C 13.8 °F /  -10.1 °C 1023.6 in /  34659.1 hPa Calm     94 % 0.0 in /  0 mm
01:07 14.8 °F /  -9.6 °C 13.8 °F /  -10.1 °C 1023.2 in /  34645.6 hPa Calm     94 % 0.0 in /  0 mm
01:12 14.8 °F /  -9.6 °C 13.8 °F /  -10.1 °C 1023.2 in /  34645.6 hPa Calm     94 % 0.0 in /  0 mm
01:17 14.8 °F /  -9.6 °C 13.8 °F /  -10.1 °C 1023.2 in /  34645.6 hPa Calm     94 % 0.0 in /  0 mm
01:27 14.6 °F /  -9.7 °C 13.6 °F /  -10.2 °C 1023.2 in /  34645.6 hPa Calm     94 % 0.0 in /  0 mm
01:32 14.7 °F /  -9.6 °C 13.9 °F /  -10.1 °C 1023.2 in /  34645.6 hPa Calm     95 % 0.0 in /  0 mm
01:37 14.7 °F /  -9.6 °C 13.7 °F /  -10.2 °C 1023.2 in /  34645.6 hPa Calm     94 % 0.0 in /  0 mm
01:42 14.6 °F /  -9.7 °C 13.8 °F /  -10.1 °C 1023.2 in /  34645.6 hPa Calm     95 % 0.0 in /  0 mm
01:52 14.6 °F /  -9.7 °C 13.8 °F /  -10.1 °C 1023.2 in /  34645.6 hPa Calm     95 % 0.0 in /  0 mm
01:57 14.6 °F /  -9.7 °C 13.8 °F /  -10.1 °C 1023.2 in /  34645.6 hPa Calm     95 % 0.0 in /  0 mm
02:02 14.4 °F /  -9.8 °C 13.6 °F /  -10.2 °C 1023.2 in /  34645.6 hPa Calm     95 % 0.0 in /  0 mm
02:12 14.2 °F /  -9.9 °C 13.4 °F /  -10.3 °C 1023.2 in /  34645.6 hPa Calm     95 % 0.0 in /  0 mm
02:17 14.2 °F /  -9.9 °C 13.4 °F /  -10.3 °C 1023.2 in /  34645.6 hPa Calm     95 % 0.0 in /  0 mm
02:22 14.2 °F /  -9.9 °C 13.4 °F /  -10.3 °C 1023.2 in /  34645.6 hPa Calm     95 % 0.0 in /  0 mm
02:32 14.1 °F /  -9.9 °C 13.3 °F /  -10.4 °C 1023.2 in /  34645.6 hPa Calm     95 % 0.0 in /  0 mm
02:42 14.2 °F /  -9.9 °C 13.6 °F /  -10.2 °C 1023.2 in /  34645.6 hPa Calm     96 % 0.0 in /  0 mm
02:47 14.4 °F /  -9.8 °C 13.8 °F /  -10.1 °C 1023.2 in /  34645.6 hPa Calm     96 % 0.0 in /  0 mm
02:52 14.4 °F /  -9.8 °C 13.8 °F /  -10.1 °C 1023.2 in /  34645.6 hPa Calm     96 % 0.0 in /  0 mm
02:57 14.4 °F /  -9.8 °C 13.8 °F /  -10.1 °C 1023.2 in /  34645.6 hPa Calm     96 % 0.0 in /  0 mm
03:02 14.5 °F /  -9.7 °C 13.7 °F /  -10.2 °C 1023.2 in /  34645.6 hPa Calm     95 % 0.0 in /  0 mm
03:12 14.4 °F /  -9.8 °C 13.6 °F /  -10.2 °C 1022.9 in /  34635.4 hPa Calm     95 % 0.0 in /  0 mm
03:17 14.4 °F /  -9.8 °C 13.6 °F /  -10.2 °C 1022.9 in /  34635.4 hPa Calm     95 % 0.0 in /  0 mm
03:22 14.5 °F /  -9.7 °C 13.7 °F /  -10.2 °C 1022.9 in /  34635.4 hPa Calm     95 % 0.0 in /  0 mm
03:32 14.2 °F /  -9.9 °C 13.4 °F /  -10.3 °C 1022.9 in /  34635.4 hPa Calm     95 % 0.0 in /  0 mm
03:37 14.3 °F /  -9.8 °C 13.5 °F /  -10.3 °C 1022.9 in /  34635.4 hPa Calm     95 % 0.0 in /  0 mm
03:42 14.4 °F /  -9.8 °C 13.6 °F /  -10.2 °C 1022.9 in /  34635.4 hPa Calm     95 % 0.0 in /  0 mm
03:47 14.4 °F /  -9.8 °C 13.6 °F /  -10.2 °C 1022.9 in /  34635.4 hPa Calm     95 % 0.0 in /  0 mm
03:57 14.6 °F /  -9.7 °C 13.8 °F /  -10.1 °C 1022.9 in /  34635.4 hPa Calm     95 % 0.0 in /  0 mm
04:02 14.6 °F /  -9.7 °C 13.8 °F /  -10.1 °C 1022.9 in /  34635.4 hPa Calm     95 % 0.0 in /  0 mm
04:12 14.5 °F /  -9.7 °C 13.5 °F /  -10.3 °C 1022.9 in /  34635.4 hPa Calm     94 % 0.0 in /  0 mm
04:17 14.6 °F /  -9.7 °C 13.6 °F /  -10.2 °C 1022.9 in /  34635.4 hPa Calm     94 % 0.0 in /  0 mm
04:22 14.7 °F /  -9.6 °C 13.7 °F /  -10.2 °C 1022.6 in /  34625.2 hPa Calm     94 % 0.0 in /  0 mm
04:27 14.7 °F /  -9.6 °C 13.6 °F /  -10.2 °C 1022.6 in /  34625.2 hPa Calm     93 % 0.0 in /  0 mm
04:32 14.8 °F /  -9.6 °C 13.7 °F /  -10.2 °C 1022.6 in /  34625.2 hPa Calm     93 % 0.0 in /  0 mm
04:42 14.6 °F /  -9.7 °C 13.1 °F /  -10.5 °C 1022.6 in /  34625.2 hPa Calm     91 % 0.0 in /  0 mm
04:47 14.3 °F /  -9.8 °C 13.0 °F /  -10.6 °C 1022.6 in /  34625.2 hPa Calm     92 % 0.0 in /  0 mm
04:52 14.2 °F /  -9.9 °C 13.1 °F /  -10.5 °C 1022.6 in /  34625.2 hPa Calm     93 % 0.0 in /  0 mm
05:02 14.2 °F /  -9.9 °C 13.2 °F /  -10.4 °C 1022.6 in /  34625.2 hPa Calm     94 % 0.0 in /  0 mm
05:22 14.2 °F /  -9.9 °C 13.2 °F /  -10.4 °C 1022.2 in /  34611.7 hPa Calm     94 % 0.0 in /  0 mm
05:32 14.2 °F /  -9.9 °C 13.2 °F /  -10.4 °C 1022.2 in /  34611.7 hPa Calm     94 % 0.0 in /  0 mm
05:37 14.1 °F /  -9.9 °C 13.1 °F /  -10.5 °C 1022.2 in /  34611.7 hPa Calm     94 % 0.0 in /  0 mm
05:42 14.0 °F /  -10 °C 13.0 °F /  -10.6 °C 1022.2 in /  34611.7 hPa Calm     94 % 0.0 in /  0 mm
05:52 13.8 °F /  -10.1 °C 12.9 °F /  -10.6 °C 1022.2 in /  34611.7 hPa Calm     94 % 0.0 in /  0 mm
05:57 13.7 °F /  -10.2 °C 12.8 °F /  -10.7 °C 1022.2 in /  34611.7 hPa Calm     94 % 0.0 in /  0 mm
06:02 13.6 °F /  -10.2 °C 12.7 °F /  -10.7 °C 1022.2 in /  34611.7 hPa Calm     94 % 0.0 in /  0 mm
06:12 13.6 °F /  -10.2 °C 12.8 °F /  -10.7 °C 1022.2 in /  34611.7 hPa Calm     95 % 0.0 in /  0 mm
06:17 13.6 °F /  -10.2 °C 12.8 °F /  -10.7 °C 1022.6 in /  34625.2 hPa Calm     95 % 0.0 in /  0 mm
06:22 13.6 °F /  -10.2 °C 12.8 °F /  -10.7 °C 1022.6 in /  34625.2 hPa Calm     95 % 0.0 in /  0 mm
06:32 13.6 °F /  -10.2 °C 12.8 °F /  -10.7 °C 1022.6 in /  34625.2 hPa Calm     95 % 0.0 in /  0 mm
06:37 13.6 °F /  -10.2 °C 12.8 °F /  -10.7 °C 1022.6 in /  34625.2 hPa Calm     95 % 0.0 in /  0 mm
06:42 13.6 °F /  -10.2 °C 12.8 °F /  -10.7 °C 1022.6 in /  34625.2 hPa Calm     95 % 0.0 in /  0 mm
06:47 13.6 °F /  -10.2 °C 12.8 °F /  -10.7 °C 1022.6 in /  34625.2 hPa Calm     95 % 0.0 in /  0 mm
06:52 13.6 °F /  -10.2 °C 12.8 °F /  -10.7 °C 1022.6 in /  34625.2 hPa Calm     95 % 0.0 in /  0 mm
07:02 13.6 °F /  -10.2 °C 12.8 °F /  -10.7 °C 1022.2 in /  34611.7 hPa Calm     95 % 0.0 in /  0 mm
07:12 13.4 °F /  -10.3 °C 12.6 °F /  -10.8 °C 1022.2 in /  34611.7 hPa Calm     95 % 0.0 in /  0 mm
07:17 13.4 °F /  -10.3 °C 12.6 °F /  -10.8 °C 1022.2 in /  34611.7 hPa Calm     95 % 0.0 in /  0 mm
07:22 13.4 °F /  -10.3 °C 12.6 °F /  -10.8 °C 1022.6 in /  34625.2 hPa Calm     95 % 0.0 in /  0 mm
07:32 13.2 °F /  -10.4 °C 12.4 °F /  -10.9 °C 1022.6 in /  34625.2 hPa Calm     95 % 0.0 in /  0 mm
07:37 13.2 °F /  -10.4 °C 12.4 °F /  -10.9 °C 1022.6 in /  34625.2 hPa Calm     95 % 0.0 in /  0 mm
07:42 13.3 °F /  -10.4 °C 12.7 °F /  -10.7 °C 1022.6 in /  34625.2 hPa Calm     96 % 0.0 in /  0 mm
07:47 13.3 °F /  -10.4 °C 12.5 °F /  -10.8 °C 1022.6 in /  34625.2 hPa Calm     95 % 0.0 in /  0 mm
07:52 13.2 °F /  -10.4 °C 12.4 °F /  -10.9 °C 1022.6 in /  34625.2 hPa Calm     95 % 0.0 in /  0 mm
08:02 12.9 °F /  -10.6 °C 12.1 °F /  -11.1 °C 1022.6 in /  34625.2 hPa Calm     95 % 0.0 in /  0 mm
08:12 13.2 °F /  -10.4 °C 12.6 °F /  -10.8 °C 1022.9 in /  34635.4 hPa Calm     96 % 0.0 in /  0 mm
08:17 13.2 °F /  -10.4 °C 12.4 °F /  -10.9 °C 1022.9 in /  34635.4 hPa Calm     95 % 0.0 in /  0 mm
08:22 13.2 °F /  -10.4 °C 12.4 °F /  -10.9 °C 1022.9 in /  34635.4 hPa Calm     95 % 0.0 in /  0 mm
08:32 13.4 °F /  -10.3 °C 12.6 °F /  -10.8 °C 1022.9 in /  34635.4 hPa Calm     95 % 0.0 in /  0 mm
08:37 13.4 °F /  -10.3 °C 12.6 °F /  -10.8 °C 1022.9 in /  34635.4 hPa Calm     95 % 0.0 in /  0 mm
08:42 13.6 °F /  -10.2 °C 12.8 °F /  -10.7 °C 1022.9 in /  34635.4 hPa Calm     95 % 0.0 in /  0 mm
08:47 13.7 °F /  -10.2 °C 12.9 °F /  -10.6 °C 1022.9 in /  34635.4 hPa Calm     95 % 0.0 in /  0 mm
08:52 13.7 °F /  -10.2 °C 12.9 °F /  -10.6 °C 1022.9 in /  34635.4 hPa Calm     95 % 0.0 in /  0 mm
09:02 14.0 °F /  -10 °C 13.2 °F /  -10.4 °C 1022.9 in /  34635.4 hPa Calm     95 % 0.0 in /  0 mm
09:12 14.2 °F /  -9.9 °C 13.4 °F /  -10.3 °C 1022.9 in /  34635.4 hPa Calm     95 % 0.0 in /  0 mm
09:17 14.2 °F /  -9.9 °C 13.2 °F /  -10.4 °C 1022.9 in /  34635.4 hPa Calm     94 % 0.0 in /  0 mm
09:22 14.2 °F /  -9.9 °C 13.2 °F /  -10.4 °C 1022.9 in /  34635.4 hPa Calm     94 % 0.0 in /  0 mm
09:32 14.3 °F /  -9.8 °C 13.3 °F /  -10.4 °C 1022.9 in /  34635.4 hPa Calm     94 % 0.0 in /  0 mm
09:47 14.7 °F /  -9.6 °C 13.6 °F /  -10.2 °C 1022.9 in /  34635.4 hPa Calm     93 % 0.0 in /  0 mm
09:52 14.9 °F /  -9.5 °C 13.6 °F /  -10.2 °C 1022.9 in /  34635.4 hPa Calm     92 % 0.0 in /  0 mm
10:02 15.4 °F /  -9.2 °C 14.1 °F /  -9.9 °C 1022.9 in /  34635.4 hPa Calm     92 % 0.0 in /  0 mm
10:12 16.2 °F /  -8.8 °C 14.6 °F /  -9.7 °C 1022.9 in /  34635.4 hPa Calm   3.2 mph /  5.1 km/h 90 % 0.0 in /  0 mm
10:17 16.7 °F /  -8.5 °C 15.1 °F /  -9.4 °C 1022.9 in /  34635.4 hPa Calm   3.2 mph /  5.1 km/h 90 % 0.0 in /  0 mm
10:22 16.9 °F /  -8.4 °C 14.9 °F /  -9.5 °C 1022.9 in /  34635.4 hPa SSE 1.6 mph /  2.6 km/h 3.2 mph /  5.1 km/h 88 % 0.0 in /  0 mm
10:27 17.1 °F /  -8.3 °C 14.9 °F /  -9.5 °C 1022.9 in /  34635.4 hPa Calm   3.2 mph /  5.1 km/h 87 % 0.0 in /  0 mm
10:32 17.4 °F /  -8.1 °C 15.4 °F /  -9.2 °C 1022.9 in /  34635.4 hPa Calm   3.2 mph /  5.1 km/h 88 % 0.0 in /  0 mm
10:42 18.1 °F /  -7.7 °C 15.5 °F /  -9.2 °C 1022.9 in /  34635.4 hPa SSW 1.6 mph /  2.6 km/h 3.2 mph /  5.1 km/h 85 % 0.0 in /  0 mm
10:47 18.1 °F /  -7.7 °C 15.5 °F /  -9.2 °C 1022.9 in /  34635.4 hPa SSE 3.2 mph /  5.1 km/h 6.4 mph /  10.3 km/h 85 % 0.0 in /  0 mm
10:52 18.2 °F /  -7.7 °C 15.5 °F /  -9.2 °C 1022.9 in /  34635.4 hPa SW 4.8 mph /  7.7 km/h 6.4 mph /  10.3 km/h 84 % 0.0 in /  0 mm
11:02 18.4 °F /  -7.6 °C 15.6 °F /  -9.1 °C 1022.9 in /  34635.4 hPa SE 1.6 mph /  2.6 km/h 6.4 mph /  10.3 km/h 84 % 0.0 in /  0 mm
11:12 18.9 °F /  -7.3 °C 16.1 °F /  -8.8 °C 1022.9 in /  34635.4 hPa SSW 4.8 mph /  7.7 km/h 6.4 mph /  10.3 km/h 84 % 0.0 in /  0 mm
11:17 19.3 °F /  -7.1 °C 16.0 °F /  -8.9 °C 1022.9 in /  34635.4 hPa SSW 3.2 mph /  5.1 km/h 8.0 mph /  12.9 km/h 81 % 0.0 in /  0 mm
11:22 19.4 °F /  -7 °C 16.1 °F /  -8.8 °C 1022.9 in /  34635.4 hPa WSW 4.8 mph /  7.7 km/h 8.0 mph /  12.9 km/h 81 % 0.0 in /  0 mm
11:32 19.6 °F /  -6.9 °C 15.9 °F /  -8.9 °C 1022.6 in /  34625.2 hPa SW 8.0 mph /  12.9 km/h 8.0 mph /  12.9 km/h 79 % 0.0 in /  0 mm
11:37 19.7 °F /  -6.8 °C 16.0 °F /  -8.9 °C 1022.6 in /  34625.2 hPa SW 3.2 mph /  5.1 km/h 8.0 mph /  12.9 km/h 79 % 0.0 in /  0 mm
11:42 19.9 °F /  -6.7 °C 15.9 °F /  -8.9 °C 1022.6 in /  34625.2 hPa SW 1.6 mph /  2.6 km/h 8.0 mph /  12.9 km/h 78 % 0.0 in /  0 mm
11:47 20.3 °F /  -6.5 °C 16.1 °F /  -8.8 °C 1022.6 in /  34625.2 hPa SW 1.6 mph /  2.6 km/h 8.0 mph /  12.9 km/h 77 % 0.0 in /  0 mm
11:52 20.4 °F /  -6.4 °C 16.2 °F /  -8.8 °C 1022.6 in /  34625.2 hPa SW 4.8 mph /  7.7 km/h 8.0 mph /  12.9 km/h 77 % 0.0 in /  0 mm
11:57 20.7 °F /  -6.3 °C 16.3 °F /  -8.7 °C 1022.2 in /  34611.7 hPa WSW 3.2 mph /  5.1 km/h 6.4 mph /  10.3 km/h 76 % 0.0 in /  0 mm
12:02 21.1 °F /  -6.1 °C 16.7 °F /  -8.5 °C 1022.2 in /  34611.7 hPa Calm   6.4 mph /  10.3 km/h 76 % 0.0 in /  0 mm
12:07 21.4 °F /  -5.9 °C 16.6 °F /  -8.6 °C 1022.2 in /  34611.7 hPa SSW 1.6 mph /  2.6 km/h 4.8 mph /  7.7 km/h 74 % 0.0 in /  0 mm
12:12 21.7 °F /  -5.7 °C 16.4 °F /  -8.7 °C 1022.2 in /  34611.7 hPa SE 3.2 mph /  5.1 km/h 4.8 mph /  7.7 km/h 72 % 0.0 in /  0 mm
12:17 21.8 °F /  -5.7 °C 16.3 °F /  -8.7 °C 1022.2 in /  34611.7 hPa Calm   3.2 mph /  5.1 km/h 71 % 0.0 in /  0 mm
12:22 21.9 °F /  -5.6 °C 16.4 °F /  -8.7 °C 1022.2 in /  34611.7 hPa Calm   3.2 mph /  5.1 km/h 71 % 0.0 in /  0 mm
12:32 21.9 °F /  -5.6 °C 16.4 °F /  -8.7 °C 1022.2 in /  34611.7 hPa Calm   4.8 mph /  7.7 km/h 71 % 0.0 in /  0 mm
12:37 22.2 °F /  -5.4 °C 16.7 °F /  -8.5 °C 1021.9 in /  34601.5 hPa SSW 3.2 mph /  5.1 km/h 4.8 mph /  7.7 km/h 71 % 0.0 in /  0 mm
12:42 22.5 °F /  -5.3 °C 16.3 °F /  -8.7 °C 1021.9 in /  34601.5 hPa Calm   8.0 mph /  12.9 km/h 68 % 0.0 in /  0 mm
12:47 22.8 °F /  -5.1 °C 16.1 °F /  -8.8 °C 1021.9 in /  34601.5 hPa South 6.4 mph /  10.3 km/h 8.0 mph /  12.9 km/h 66 % 0.0 in /  0 mm
12:57 22.9 °F /  -5.1 °C 15.5 °F /  -9.2 °C 1021.9 in /  34601.5 hPa South 4.8 mph /  7.7 km/h 11.3 mph /  18.2 km/h 63 % 0.0 in /  0 mm
13:02 23.1 °F /  -4.9 °C 15.7 °F /  -9.1 °C 1021.9 in /  34601.5 hPa West 1.6 mph /  2.6 km/h 11.3 mph /  18.2 km/h 63 % 0.0 in /  0 mm
13:12 23.3 °F /  -4.8 °C 15.4 °F /  -9.2 °C 1021.6 in /  34591.4 hPa SW 8.0 mph /  12.9 km/h 14.5 mph /  23.3 km/h 61 % 0.0 in /  0 mm
13:17 23.4 °F /  -4.8 °C 15.7 °F /  -9.1 °C 1021.6 in /  34591.4 hPa SSW 8.0 mph /  12.9 km/h 14.5 mph /  23.3 km/h 62 % 0.0 in /  0 mm
13:22 23.4 °F /  -4.8 °C 15.7 °F /  -9.1 °C 1021.6 in /  34591.4 hPa SSW 4.8 mph /  7.7 km/h 16.1 mph /  25.9 km/h 62 % 0.0 in /  0 mm
13:32 23.6 °F /  -4.7 °C 15.9 °F /  -8.9 °C 1021.6 in /  34591.4 hPa West 6.4 mph /  10.3 km/h 16.1 mph /  25.9 km/h 62 % 0.0 in /  0 mm
13:42 23.6 °F /  -4.7 °C 15.4 °F /  -9.2 °C 1021.6 in /  34591.4 hPa SSW 6.4 mph /  10.3 km/h 14.5 mph /  23.3 km/h 60 % 0.0 in /  0 mm
13:52 23.8 °F /  -4.6 °C 15.6 °F /  -9.1 °C 1021.6 in /  34591.4 hPa SW 9.7 mph /  15.6 km/h 14.5 mph /  23.3 km/h 60 % 0.0 in /  0 mm
14:02 24.0 °F /  -4.4 °C 15.5 °F /  -9.2 °C 1021.2 in /  34577.8 hPa SSW 4.8 mph /  7.7 km/h 12.9 mph /  20.8 km/h 59 % 0.0 in /  0 mm
14:07 24.2 °F /  -4.3 °C 15.1 °F /  -9.4 °C 1021.2 in /  34577.8 hPa SSW 4.8 mph /  7.7 km/h 12.9 mph /  20.8 km/h 57 % 0.0 in /  0 mm
14:12 24.3 °F /  -4.3 °C 15.2 °F /  -9.3 °C 1021.2 in /  34577.8 hPa SE 6.4 mph /  10.3 km/h 14.5 mph /  23.3 km/h 57 % 0.0 in /  0 mm
14:22 24.5 °F /  -4.2 °C 15.7 °F /  -9.1 °C 1020.9 in /  34567.7 hPa WSW 1.6 mph /  2.6 km/h 16.1 mph /  25.9 km/h 58 % 0.0 in /  0 mm
14:32 24.5 °F /  -4.2 °C 15.1 °F /  -9.4 °C 1020.9 in /  34567.7 hPa WSW 6.4 mph /  10.3 km/h 12.9 mph /  20.8 km/h 56 % 0.0 in /  0 mm
14:42 24.6 °F /  -4.1 °C 15.2 °F /  -9.3 °C 1020.9 in /  34567.7 hPa SW 6.4 mph /  10.3 km/h 14.5 mph /  23.3 km/h 56 % 0.0 in /  0 mm
14:47 24.7 °F /  -4.1 °C 15.3 °F /  -9.3 °C 1020.5 in /  34554.1 hPa SW 1.6 mph /  2.6 km/h 14.5 mph /  23.3 km/h 56 % 0.0 in /  0 mm
14:52 24.8 °F /  -4 °C 15.1 °F /  -9.4 °C 1020.5 in /  34554.1 hPa WNW 1.6 mph /  2.6 km/h 14.5 mph /  23.3 km/h 55 % 0.0 in /  0 mm
15:02 25.2 °F /  -3.8 °C 14.9 °F /  -9.5 °C 1020.5 in /  34554.1 hPa SW 3.2 mph /  5.1 km/h 14.5 mph /  23.3 km/h 53 % 0.0 in /  0 mm
15:12 25.0 °F /  -3.9 °C 15.0 °F /  -9.4 °C 1020.5 in /  34554.1 hPa SSW 4.8 mph /  7.7 km/h 14.5 mph /  23.3 km/h 54 % 0.0 in /  0 mm
15:17 25.1 °F /  -3.8 °C 15.4 °F /  -9.2 °C 1020.5 in /  34554.1 hPa WSW 8.0 mph /  12.9 km/h 14.5 mph /  23.3 km/h 55 % 0.0 in /  0 mm
15:22 25.1 °F /  -3.8 °C 15.1 °F /  -9.4 °C 1020.5 in /  34554.1 hPa Calm   16.1 mph /  25.9 km/h 54 % 0.0 in /  0 mm
15:32 25.3 °F /  -3.7 °C 15.3 °F /  -9.3 °C 1020.5 in /  34554.1 hPa WSW 9.7 mph /  15.6 km/h 16.1 mph /  25.9 km/h 54 % 0.0 in /  0 mm
15:42 25.3 °F /  -3.7 °C 14.4 °F /  -9.8 °C 1020.5 in /  34554.1 hPa SSW 4.8 mph /  7.7 km/h 16.1 mph /  25.9 km/h 51 % 0.0 in /  0 mm
15:47 25.3 °F /  -3.7 °C 14.4 °F /  -9.8 °C 1020.2 in /  34544 hPa West 6.4 mph /  10.3 km/h 16.1 mph /  25.9 km/h 51 % 0.0 in /  0 mm
15:57 25.2 °F /  -3.8 °C 14.6 °F /  -9.7 °C 1020.2 in /  34544 hPa WSW 8.0 mph /  12.9 km/h 16.1 mph /  25.9 km/h 52 % 0.0 in /  0 mm
16:02 25.2 °F /  -3.8 °C 14.3 °F /  -9.8 °C 1020.2 in /  34544 hPa SW 3.2 mph /  5.1 km/h 16.1 mph /  25.9 km/h 51 % 0.0 in /  0 mm
16:12 25.3 °F /  -3.7 °C 14.7 °F /  -9.6 °C 1020.2 in /  34544 hPa WSW 6.4 mph /  10.3 km/h 14.5 mph /  23.3 km/h 52 % 0.0 in /  0 mm
16:22 25.4 °F /  -3.7 °C 14.5 °F /  -9.7 °C 1020.2 in /  34544 hPa West 4.8 mph /  7.7 km/h 8.0 mph /  12.9 km/h 51 % 0.0 in /  0 mm
16:32 25.2 °F /  -3.8 °C 14.6 °F /  -9.7 °C 1019.9 in /  34533.8 hPa SW 8.0 mph /  12.9 km/h 11.3 mph /  18.2 km/h 52 % 0.0 in /  0 mm
16:42 25.1 °F /  -3.8 °C 14.6 °F /  -9.7 °C 1019.9 in /  34533.8 hPa SW 1.6 mph /  2.6 km/h 14.5 mph /  23.3 km/h 52 % 0.0 in /  0 mm
16:47 24.9 °F /  -3.9 °C 14.7 °F /  -9.6 °C 1019.9 in /  34533.8 hPa WSW 3.2 mph /  5.1 km/h 14.5 mph /  23.3 km/h 53 % 0.0 in /  0 mm
16:52 24.8 °F /  -4 °C 14.9 °F /  -9.5 °C 1019.9 in /  34533.8 hPa SW 4.8 mph /  7.7 km/h 11.3 mph /  18.2 km/h 54 % 0.0 in /  0 mm
16:57 24.9 °F /  -3.9 °C 15.5 °F /  -9.2 °C 1019.9 in /  34533.8 hPa SW 4.8 mph /  7.7 km/h 11.3 mph /  18.2 km/h 56 % 0.0 in /  0 mm
17:02 25.0 °F /  -3.9 °C 14.8 °F /  -9.6 °C 1019.9 in /  34533.8 hPa WSW 3.2 mph /  5.1 km/h 9.7 mph /  15.6 km/h 53 % 0.0 in /  0 mm
17:12 25.6 °F /  -3.6 °C 15.0 °F /  -9.4 °C 1019.9 in /  34533.8 hPa Calm   9.7 mph /  15.6 km/h 52 % 0.0 in /  0 mm
17:17 26.2 °F /  -3.2 °C 15.0 °F /  -9.4 °C 1019.9 in /  34533.8 hPa Calm   6.4 mph /  10.3 km/h 50 % 0.0 in /  0 mm
17:22 26.4 °F /  -3.1 °C 15.1 °F /  -9.4 °C 1019.9 in /  34533.8 hPa SSW 6.4 mph /  10.3 km/h 6.4 mph /  10.3 km/h 50 % 0.0 in /  0 mm
17:27 26.2 °F /  -3.2 °C 14.6 °F /  -9.7 °C 1019.9 in /  34533.8 hPa WSW 1.6 mph /  2.6 km/h 8.0 mph /  12.9 km/h 49 % 0.0 in /  0 mm
17:32 26.1 °F /  -3.3 °C 15.2 °F /  -9.3 °C 1019.9 in /  34533.8 hPa SW 4.8 mph /  7.7 km/h 8.0 mph /  12.9 km/h 51 % 0.0 in /  0 mm
17:37 25.9 °F /  -3.4 °C 14.7 °F /  -9.6 °C 1019.9 in /  34533.8 hPa SW 3.2 mph /  5.1 km/h 9.7 mph /  15.6 km/h 50 % 0.0 in /  0 mm
17:42 25.8 °F /  -3.4 °C 14.6 °F /  -9.7 °C 1019.9 in /  34533.8 hPa WSW 6.4 mph /  10.3 km/h 9.7 mph /  15.6 km/h 50 % 0.0 in /  0 mm
17:47 25.5 °F /  -3.6 °C 14.6 °F /  -9.7 °C 1019.5 in /  34520.3 hPa West 4.8 mph /  7.7 km/h 9.7 mph /  15.6 km/h 51 % 0.0 in /  0 mm
17:52 25.4 °F /  -3.7 °C 14.8 °F /  -9.6 °C 1019.5 in /  34520.3 hPa SW 4.8 mph /  7.7 km/h 9.7 mph /  15.6 km/h 52 % 0.0 in /  0 mm
18:02 25.4 °F /  -3.7 °C 14.2 °F /  -9.9 °C 1019.5 in /  34520.3 hPa SW 3.2 mph /  5.1 km/h 8.0 mph /  12.9 km/h 50 % 0.0 in /  0 mm
18:07 25.3 °F /  -3.7 °C 14.4 °F /  -9.8 °C 1019.9 in /  34533.8 hPa WSW 3.2 mph /  5.1 km/h 8.0 mph /  12.9 km/h 51 % 0.0 in /  0 mm
18:12 25.5 °F /  -3.6 °C 15.2 °F /  -9.3 °C 1019.5 in /  34520.3 hPa SSW 1.6 mph /  2.6 km/h 8.0 mph /  12.9 km/h 53 % 0.0 in /  0 mm
18:17 25.7 °F /  -3.5 °C 15.1 °F /  -9.4 °C 1019.5 in /  34520.3 hPa WSW 3.2 mph /  5.1 km/h 8.0 mph /  12.9 km/h 52 % 0.0 in /  0 mm
18:22 25.7 °F /  -3.5 °C 14.8 °F /  -9.6 °C 1019.5 in /  34520.3 hPa West 1.6 mph /  2.6 km/h 8.0 mph /  12.9 km/h 51 % 0.0 in /  0 mm
18:32 25.6 °F /  -3.6 °C 14.7 °F /  -9.6 °C 1019.9 in /  34533.8 hPa WSW 1.6 mph /  2.6 km/h 8.0 mph /  12.9 km/h 51 % 0.0 in /  0 mm
18:37 25.4 °F /  -3.7 °C 14.5 °F /  -9.7 °C 1019.9 in /  34533.8 hPa WSW 3.2 mph /  5.1 km/h 4.8 mph /  7.7 km/h 51 % 0.0 in /  0 mm
18:42 25.0 °F /  -3.9 °C 14.2 °F /  -9.9 °C 1019.9 in /  34533.8 hPa SW 4.8 mph /  7.7 km/h 4.8 mph /  7.7 km/h 51 % 0.0 in /  0 mm
18:52 24.5 °F /  -4.2 °C 14.3 °F /  -9.8 °C 1019.9 in /  34533.8 hPa WSW 1.6 mph /  2.6 km/h 6.4 mph /  10.3 km/h 53 % 0.0 in /  0 mm
18:57 24.2 °F /  -4.3 °C 14.6 °F /  -9.7 °C 1019.9 in /  34533.8 hPa Calm   6.4 mph /  10.3 km/h 55 % 0.0 in /  0 mm
19:02 23.8 °F /  -4.6 °C 15.0 °F /  -9.4 °C 1019.9 in /  34533.8 hPa Calm   6.4 mph /  10.3 km/h 58 % 0.0 in /  0 mm
19:12 22.8 °F /  -5.1 °C 15.9 °F /  -8.9 °C 1019.9 in /  34533.8 hPa Calm   4.8 mph /  7.7 km/h 65 % 0.0 in /  0 mm
19:17 22.3 °F /  -5.4 °C 15.9 °F /  -8.9 °C 1019.9 in /  34533.8 hPa WNW 1.6 mph /  2.6 km/h 1.6 mph /  2.6 km/h 67 % 0.0 in /  0 mm
19:22 21.9 °F /  -5.6 °C 16.0 °F /  -8.9 °C 1019.9 in /  34533.8 hPa WNW 1.6 mph /  2.6 km/h 1.6 mph /  2.6 km/h 69 % 0.0 in /  0 mm
19:27 21.6 °F /  -5.8 °C 15.9 °F /  -8.9 °C 1019.9 in /  34533.8 hPa WNW 1.6 mph /  2.6 km/h 1.6 mph /  2.6 km/h 70 % 0.0 in /  0 mm
19:32 21.7 °F /  -5.7 °C 16.0 °F /  -8.9 °C 1019.9 in /  34533.8 hPa WNW 1.6 mph /  2.6 km/h 3.2 mph /  5.1 km/h 70 % 0.0 in /  0 mm
19:37 21.6 °F /  -5.8 °C 16.1 °F /  -8.8 °C 1019.9 in /  34533.8 hPa Calm   3.2 mph /  5.1 km/h 71 % 0.0 in /  0 mm
19:47 21.5 °F /  -5.8 °C 15.3 °F /  -9.3 °C 1020.2 in /  34544 hPa Calm   1.6 mph /  2.6 km/h 68 % 0.0 in /  0 mm
19:52 21.6 °F /  -5.8 °C 15.2 °F /  -9.3 °C 1020.2 in /  34544 hPa Calm   1.6 mph /  2.6 km/h 67 % 0.0 in /  0 mm
20:02 21.2 °F /  -6 °C 15.5 °F /  -9.2 °C 1020.2 in /  34544 hPa Calm   3.2 mph /  5.1 km/h 70 % 0.0 in /  0 mm
20:07 21.1 °F /  -6.1 °C 15.4 °F /  -9.2 °C 1020.2 in /  34544 hPa Calm   3.2 mph /  5.1 km/h 70 % 0.0 in /  0 mm
20:12 21.3 °F /  -5.9 °C 15.2 °F /  -9.3 °C 1019.9 in /  34533.8 hPa Calm   3.2 mph /  5.1 km/h 68 % 0.0 in /  0 mm
20:22 20.7 °F /  -6.3 °C 15.5 °F /  -9.2 °C 1020.2 in /  34544 hPa WNW 3.2 mph /  5.1 km/h   72 % 0.0 in /  0 mm
20:32 19.7 °F /  -6.8 °C 15.3 °F /  -9.3 °C 1019.9 in /  34533.8 hPa Calm   3.2 mph /  5.1 km/h 76 % 0.0 in /  0 mm
20:47 19.5 °F /  -6.9 °C 15.6 °F /  -9.1 °C 1019.9 in /  34533.8 hPa Calm   1.6 mph /  2.6 km/h 78 % 0.0 in /  0 mm
20:52 19.3 °F /  -7.1 °C 15.4 °F /  -9.2 °C 1019.9 in /  34533.8 hPa Calm   1.6 mph /  2.6 km/h 78 % 0.0 in /  0 mm
21:02 19.1 °F /  -7.2 °C 15.4 °F /  -9.2 °C 1019.9 in /  34533.8 hPa Calm     79 % 0.0 in /  0 mm
21:12 18.7 °F /  -7.4 °C 15.2 °F /  -9.3 °C 1019.9 in /  34533.8 hPa Calm     80 % 0.0 in /  0 mm
21:17 18.3 °F /  -7.6 °C 15.2 °F /  -9.3 °C 1019.9 in /  34533.8 hPa Calm     82 % 0.0 in /  0 mm
21:22 18.1 °F /  -7.7 °C 15.2 °F /  -9.3 °C 1019.9 in /  34533.8 hPa WNW 1.6 mph /  2.6 km/h 1.6 mph /  2.6 km/h 83 % 0.0 in /  0 mm
21:32 18.1 °F /  -7.7 °C 15.0 °F /  -9.4 °C 1019.9 in /  34533.8 hPa Calm   3.2 mph /  5.1 km/h 82 % 0.0 in /  0 mm
21:37 18.2 °F /  -7.7 °C 15.3 °F /  -9.3 °C 1019.5 in /  34520.3 hPa Calm   3.2 mph /  5.1 km/h 83 % 0.0 in /  0 mm
21:42 18.2 °F /  -7.7 °C 15.3 °F /  -9.3 °C 1019.5 in /  34520.3 hPa Calm   1.6 mph /  2.6 km/h 83 % 0.0 in /  0 mm
21:47 17.9 °F /  -7.8 °C 15.0 °F /  -9.4 °C 1019.5 in /  34520.3 hPa WNW 1.6 mph /  2.6 km/h 1.6 mph /  2.6 km/h 83 % 0.0 in /  0 mm
21:52 17.6 °F /  -8 °C 15.0 °F /  -9.4 °C 1019.5 in /  34520.3 hPa WNW 3.2 mph /  5.1 km/h 3.2 mph /  5.1 km/h 85 % 0.0 in /  0 mm
21:57 17.4 °F /  -8.1 °C 14.9 °F /  -9.5 °C 1019.5 in /  34520.3 hPa WNW 1.6 mph /  2.6 km/h 3.2 mph /  5.1 km/h 85 % 0.0 in /  0 mm
22:02 17.6 °F /  -8 °C 14.9 °F /  -9.5 °C 1019.9 in /  34533.8 hPa WNW 1.6 mph /  2.6 km/h 3.2 mph /  5.1 km/h 84 % 0.0 in /  0 mm
22:12 17.4 °F /  -8.1 °C 15.0 °F /  -9.4 °C 1019.5 in /  34520.3 hPa Calm   3.2 mph /  5.1 km/h 86 % 0.0 in /  0 mm
22:17 17.4 °F /  -8.1 °C 15.0 °F /  -9.4 °C 1019.5 in /  34520.3 hPa Calm   1.6 mph /  2.6 km/h 86 % 0.0 in /  0 mm
22:22 17.5 °F /  -8.1 °C 14.9 °F /  -9.5 °C 1019.9 in /  34533.8 hPa Calm   1.6 mph /  2.6 km/h 85 % 0.0 in /  0 mm
22:27 17.5 °F /  -8.1 °C 14.9 °F /  -9.5 °C 1019.9 in /  34533.8 hPa WNW 1.6 mph /  2.6 km/h   85 % 0.0 in /  0 mm
22:32 17.4 °F /  -8.1 °C 14.9 °F /  -9.5 °C 1019.5 in /  34520.3 hPa Calm   1.6 mph /  2.6 km/h 85 % 0.0 in /  0 mm
22:42 17.7 °F /  -7.9 °C 15.3 °F /  -9.3 °C 1019.5 in /  34520.3 hPa North 1.6 mph /  2.6 km/h 1.6 mph /  2.6 km/h 86 % 0.0 in /  0 mm
22:47 17.6 °F /  -8 °C 15.0 °F /  -9.4 °C 1019.9 in /  34533.8 hPa Calm   3.2 mph /  5.1 km/h 85 % 0.0 in /  0 mm
22:52 17.5 °F /  -8.1 °C 15.1 °F /  -9.4 °C 1019.9 in /  34533.8 hPa NNW 1.6 mph /  2.6 km/h 3.2 mph /  5.1 km/h 86 % 0.0 in /  0 mm
22:57 17.3 °F /  -8.2 °C 14.9 °F /  -9.5 °C 1019.9 in /  34533.8 hPa Calm   1.6 mph /  2.6 km/h 86 % 0.0 in /  0 mm
23:02 17.1 °F /  -8.3 °C 14.9 °F /  -9.5 °C 1019.5 in /  34520.3 hPa Calm   1.6 mph /  2.6 km/h 87 % 0.0 in /  0 mm
23:12 17.1 °F /  -8.3 °C 14.7 °F /  -9.6 °C 1019.5 in /  34520.3 hPa Calm   1.6 mph /  2.6 km/h 86 % 0.0 in /  0 mm
23:17 17.2 °F /  -8.2 °C 14.8 °F /  -9.6 °C 1019.5 in /  34520.3 hPa North 1.6 mph /  2.6 km/h 1.6 mph /  2.6 km/h 86 % 0.0 in /  0 mm
23:22 17.5 °F /  -8.1 °C 14.9 °F /  -9.5 °C 1019.2 in /  34510.1 hPa Calm   1.6 mph /  2.6 km/h 85 % 0.0 in /  0 mm
23:32 17.6 °F /  -8 °C 14.9 °F /  -9.5 °C 1019.2 in /  34510.1 hPa Calm   1.6 mph /  2.6 km/h 84 % 0.0 in /  0 mm
23:42 17.3 °F /  -8.2 °C 14.9 °F /  -9.5 °C 1019.2 in /  34510.1 hPa Calm   1.6 mph /  2.6 km/h 86 % 0.0 in /  0 mm
23:52 17.2 °F /  -8.2 °C 14.8 °F /  -9.6 °C 1019.2 in /  34510.1 hPa WNW 1.6 mph /  2.6 km/h 1.6 mph /  2.6 km/h 86 % 0.0 in /  0 mm
23:57 17.0 °F /  -8.3 °C 14.8 °F /  -9.6 °C 1019.2 in /  34510.1 hPa Calm     87 % 0.0 in /  0 mm
Meteo18
Compliments of Weather Underground - 4 mb

Script developed by  Jim McMurry - jmcmurry@mwt.net Adapted for the template by  Wim van der Kuil - Leuven-Template.eu

You find our weather info also at:

European Weather Network

Weather Underground

Equipment we use:

Weather-station
Davis Vue

Weather-program
Meteobridge

Weather-server
Raspberry PI 2 B+

Provider
1 and 1

Davis Vue

Meteobridge

Raspberry PI 2 B+

1 and 1